sensor_id;sensor_type;location;lat;lon;timestamp;pressure;altitude;pressure_sealevel;temperature;humidity
26657;BME280;14279;50.010;8.260;2023-03-03T00:01:26;100810.09;;;6.60;48.01
26657;BME280;14279;50.010;8.260;2023-03-03T00:03:52;100805.06;;;6.54;48.19
26657;BME280;14279;50.010;8.260;2023-03-03T00:06:18;100808.50;;;6.54;48.18
26657;BME280;14279;50.010;8.260;2023-03-03T00:08:44;100807.63;;;6.55;48.18
26657;BME280;14279;50.010;8.260;2023-03-03T00:11:09;100811.09;;;6.54;48.20
26657;BME280;14279;50.010;8.260;2023-03-03T00:13:49;100810.34;;;6.49;48.40
26657;BME280;14279;50.010;8.260;2023-03-03T00:16:26;100814.69;;;6.49;48.23
26657;BME280;14279;50.010;8.260;2023-03-03T00:18:53;100810.38;;;6.47;47.96
26657;BME280;14279;50.010;8.260;2023-03-03T00:21:27;100810.56;;;6.38;47.82
26657;BME280;14279;50.010;8.260;2023-03-03T00:24:00;100826.19;;;6.34;48.76
26657;BME280;14279;50.010;8.260;2023-03-03T00:26:34;100835.56;;;6.39;47.89
26657;BME280;14279;50.010;8.260;2023-03-03T00:29:01;100832.19;;;6.36;47.51
26657;BME280;14279;50.010;8.260;2023-03-03T00:31:34;100834.84;;;6.32;48.11
26657;BME280;14279;50.010;8.260;2023-03-03T00:34:26;100836.59;;;6.30;48.01
26657;BME280;14279;50.010;8.260;2023-03-03T00:36:53;100845.28;;;6.26;48.37
26657;BME280;14279;50.010;8.260;2023-03-03T00:41:52;100848.66;;;6.30;48.05
26657;BME280;14279;50.010;8.260;2023-03-03T00:50:16;100855.91;;;6.12;47.31
26657;BME280;14279;50.010;8.260;2023-03-03T00:52:51;100857.72;;;6.09;47.67
26657;BME280;14279;50.010;8.260;2023-03-03T00:55:17;100862.16;;;6.00;48.17
26657;BME280;14279;50.010;8.260;2023-03-03T00:57:43;100862.13;;;6.02;47.82
26657;BME280;14279;50.010;8.260;2023-03-03T01:00:11;100867.34;;;5.99;48.23
26657;BME280;14279;50.010;8.260;2023-03-03T01:02:36;100859.59;;;6.00;48.28
26657;BME280;14279;50.010;8.260;2023-03-03T01:05:02;100856.19;;;5.95;48.46
26657;BME280;14279;50.010;8.260;2023-03-03T01:07:27;100858.06;;;5.89;48.58
26657;BME280;14279;50.010;8.260;2023-03-03T01:09:52;100863.19;;;5.90;49.25
26657;BME280;14279;50.010;8.260;2023-03-03T01:12:17;100860.63;;;5.89;48.98
26657;BME280;14279;50.010;8.260;2023-03-03T01:14:42;100859.97;;;5.79;48.98
26657;BME280;14279;50.010;8.260;2023-03-03T01:17:09;100855.63;;;5.79;49.49
26657;BME280;14279;50.010;8.260;2023-03-03T01:19:34;100853.19;;;5.73;49.30
26657;BME280;14279;50.010;8.260;2023-03-03T01:22:00;100851.47;;;5.72;49.25
26657;BME280;14279;50.010;8.260;2023-03-03T01:24:25;100850.69;;;5.67;49.05
26657;BME280;14279;50.010;8.260;2023-03-03T01:26:50;100844.75;;;5.62;48.89
26657;BME280;14279;50.010;8.260;2023-03-03T01:29:16;100845.72;;;5.54;48.53
26657;BME280;14279;50.010;8.260;2023-03-03T01:31:41;100851.06;;;5.45;48.70
26657;BME280;14279;50.010;8.260;2023-03-03T01:34:06;100851.03;;;5.48;48.54
26657;BME280;14279;50.010;8.260;2023-03-03T01:36:32;100854.44;;;5.49;48.91
26657;BME280;14279;50.010;8.260;2023-03-03T01:38:58;100857.03;;;5.49;49.30
26657;BME280;14279;50.010;8.260;2023-03-03T01:41:27;100850.94;;;5.53;48.88
26657;BME280;14279;50.010;8.260;2023-03-03T01:43:54;100850.03;;;5.55;49.02
26657;BME280;14279;50.010;8.260;2023-03-03T01:46:30;100847.44;;;5.55;49.36
26657;BME280;14279;50.010;8.260;2023-03-03T01:49:02;100846.69;;;5.49;49.50
26657;BME280;14279;50.010;8.260;2023-03-03T01:51:42;100844.16;;;5.46;49.04
26657;BME280;14279;50.010;8.260;2023-03-03T01:54:15;100836.47;;;5.44;49.47
26657;BME280;14279;50.010;8.260;2023-03-03T01:56:42;100833.00;;;5.44;49.35
26657;BME280;14279;50.010;8.260;2023-03-03T01:59:21;100839.06;;;5.42;49.57
26657;BME280;14279;50.010;8.260;2023-03-03T02:01:48;100838.16;;;5.44;49.32
26657;BME280;14279;50.010;8.260;2023-03-03T02:04:13;100839.03;;;5.44;49.58
26657;BME280;14279;50.010;8.260;2023-03-03T02:06:43;100841.63;;;5.42;49.49
26657;BME280;14279;50.010;8.260;2023-03-03T02:09:18;100845.13;;;5.41;49.83
26657;BME280;14279;50.010;8.260;2023-03-03T02:11:50;100845.16;;;5.38;50.06
26657;BME280;14279;50.010;8.260;2023-03-03T02:14:16;100844.31;;;5.38;49.47
26657;BME280;14279;50.010;8.260;2023-03-03T02:16:42;100844.47;;;5.27;50.08
26657;BME280;14279;50.010;8.260;2023-03-03T02:19:14;100840.19;;;5.26;50.07
26657;BME280;14279;50.010;8.260;2023-03-03T02:25:04;100841.16;;;5.19;50.79
26657;BME280;14279;50.010;8.260;2023-03-03T02:27:32;100845.53;;;5.17;50.98
26657;BME280;14279;50.010;8.260;2023-03-03T02:30:11;100841.19;;;5.17;50.71
26657;BME280;14279;50.010;8.260;2023-03-03T02:32:37;100836.00;;;5.19;50.70
26657;BME280;14279;50.010;8.260;2023-03-03T02:37:51;100843.91;;;5.09;51.89
26657;BME280;14279;50.010;8.260;2023-03-03T02:40:18;100839.63;;;5.08;52.71
26657;BME280;14279;50.010;8.260;2023-03-03T02:42:46;100837.97;;;5.04;52.19
26657;BME280;14279;50.010;8.260;2023-03-03T02:45:13;100847.50;;;4.99;52.03
26657;BME280;14279;50.010;8.260;2023-03-03T02:47:38;100844.00;;;5.05;51.76
26657;BME280;14279;50.010;8.260;2023-03-03T02:50:04;100841.53;;;4.95;52.63
26657;BME280;14279;50.010;8.260;2023-03-03T02:52:29;100842.34;;;4.99;54.05
26657;BME280;14279;50.010;8.260;2023-03-03T02:54:54;100840.75;;;4.92;54.37
26657;BME280;14279;50.010;8.260;2023-03-03T02:57:20;100846.00;;;4.84;55.31
26657;BME280;14279;50.010;8.260;2023-03-03T02:59:45;100851.81;;;4.97;55.99
26657;BME280;14279;50.010;8.260;2023-03-03T03:02:10;100848.47;;;4.92;57.13
26657;BME280;14279;50.010;8.260;2023-03-03T03:04:36;100851.09;;;4.89;58.40
26657;BME280;14279;50.010;8.260;2023-03-03T03:07:04;100845.06;;;4.88;58.67
26657;BME280;14279;50.010;8.260;2023-03-03T03:09:29;100840.88;;;4.82;58.00
26657;BME280;14279;50.010;8.260;2023-03-03T03:11:55;100842.66;;;4.77;57.65
26657;BME280;14279;50.010;8.260;2023-03-03T03:14:20;100845.28;;;4.74;57.28
26657;BME280;14279;50.010;8.260;2023-03-03T03:16:45;100843.56;;;4.73;57.32
26657;BME280;14279;50.010;8.260;2023-03-03T03:19:10;100843.69;;;4.67;57.64
26657;BME280;14279;50.010;8.260;2023-03-03T03:21:36;100843.75;;;4.59;57.04
26657;BME280;14279;50.010;8.260;2023-03-03T03:24:01;100841.44;;;4.41;56.85
26657;BME280;14279;50.010;8.260;2023-03-03T03:26:26;100835.47;;;4.37;56.38
26657;BME280;14279;50.010;8.260;2023-03-03T03:28:52;100836.44;;;4.28;55.26
26657;BME280;14279;50.010;8.260;2023-03-03T03:31:18;100850.25;;;4.21;55.19
26657;BME280;14279;50.010;8.260;2023-03-03T03:33:44;100845.00;;;4.29;55.48
26657;BME280;14279;50.010;8.260;2023-03-03T03:36:10;100851.81;;;4.36;54.80
26657;BME280;14279;50.010;8.260;2023-03-03T03:38:36;100855.25;;;4.35;55.09
26657;BME280;14279;50.010;8.260;2023-03-03T03:41:02;100847.53;;;4.33;55.22
26657;BME280;14279;50.010;8.260;2023-03-03T03:43:28;100851.88;;;4.30;55.30
26657;BME280;14279;50.010;8.260;2023-03-03T03:45:53;100849.28;;;4.31;55.69
26657;BME280;14279;50.010;8.260;2023-03-03T03:48:18;100840.59;;;4.39;55.53
26657;BME280;14279;50.010;8.260;2023-03-03T03:50:45;100855.22;;;4.38;55.29
26657;BME280;14279;50.010;8.260;2023-03-03T03:53:11;100860.38;;;4.36;55.71
26657;BME280;14279;50.010;8.260;2023-03-03T03:55:36;100854.38;;;4.34;56.04
26657;BME280;14279;50.010;8.260;2023-03-03T03:58:01;100854.44;;;4.30;55.62
26657;BME280;14279;50.010;8.260;2023-03-03T04:00:27;100867.44;;;4.22;56.21
26657;BME280;14279;50.010;8.260;2023-03-03T04:02:52;100864.03;;;4.20;56.03
26657;BME280;14279;50.010;8.260;2023-03-03T04:05:18;100863.13;;;4.22;56.28
26657;BME280;14279;50.010;8.260;2023-03-03T04:07:44;100863.25;;;4.13;57.04
26657;BME280;14279;50.010;8.260;2023-03-03T04:10:10;100868.22;;;4.30;56.53
26657;BME280;14279;50.010;8.260;2023-03-03T04:12:35;100874.97;;;4.39;57.30
26657;BME280;14279;50.010;8.260;2023-03-03T04:15:07;100873.28;;;4.33;59.82
26657;BME280;14279;50.010;8.260;2023-03-03T04:17:33;100863.91;;;4.29;58.20
26657;BME280;14279;50.010;8.260;2023-03-03T04:19:58;100863.94;;;4.25;59.12
26657;BME280;14279;50.010;8.260;2023-03-03T04:22:24;100868.25;;;4.26;58.38
26657;BME280;14279;50.010;8.260;2023-03-03T04:24:49;100863.09;;;4.27;58.44
26657;BME280;14279;50.010;8.260;2023-03-03T04:27:14;100864.81;;;4.25;58.51
26657;BME280;14279;50.010;8.260;2023-03-03T04:29:40;100863.03;;;4.32;58.48
26657;BME280;14279;50.010;8.260;2023-03-03T04:32:06;100871.72;;;4.21;58.31
26657;BME280;14279;50.010;8.260;2023-03-03T04:34:31;100870.97;;;4.13;57.82
26657;BME280;14279;50.010;8.260;2023-03-03T04:36:57;100874.59;;;3.97;57.60
26657;BME280;14279;50.010;8.260;2023-03-03T04:39:22;100877.13;;;3.98;57.62
26657;BME280;14279;50.010;8.260;2023-03-03T04:41:47;100872.97;;;3.86;57.65
26657;BME280;14279;50.010;8.260;2023-03-03T04:44:12;100884.94;;;3.89;57.88
26657;BME280;14279;50.010;8.260;2023-03-03T04:46:38;100890.91;;;3.96;57.76
26657;BME280;14279;50.010;8.260;2023-03-03T04:49:03;100884.91;;;3.95;57.24
26657;BME280;14279;50.010;8.260;2023-03-03T04:51:29;100879.84;;;3.87;57.55
26657;BME280;14279;50.010;8.260;2023-03-03T04:53:54;100884.13;;;3.85;57.54
26657;BME280;14279;50.010;8.260;2023-03-03T04:56:19;100884.97;;;3.87;57.87
26657;BME280;14279;50.010;8.260;2023-03-03T04:58:45;100884.13;;;3.87;57.83
26657;BME280;14279;50.010;8.260;2023-03-03T05:01:12;100885.84;;;3.86;57.84
26657;BME280;14279;50.010;8.260;2023-03-03T05:03:38;100890.13;;;3.87;57.33
26657;BME280;14279;50.010;8.260;2023-03-03T05:06:04;100884.94;;;3.92;57.31
26657;BME280;14279;50.010;8.260;2023-03-03T05:08:29;100885.75;;;3.94;57.46
26657;BME280;14279;50.010;8.260;2023-03-03T05:10:55;100885.78;;;3.96;57.56
26657;BME280;14279;50.010;8.260;2023-03-03T05:13:21;100881.50;;;3.90;57.68
26657;BME280;14279;50.010;8.260;2023-03-03T05:15:50;100882.41;;;3.86;57.93
26657;BME280;14279;50.010;8.260;2023-03-03T05:18:20;100879.00;;;3.85;57.46
26657;BME280;14279;50.010;8.260;2023-03-03T05:20:46;100884.16;;;3.84;57.99
26657;BME280;14279;50.010;8.260;2023-03-03T05:23:12;100881.59;;;3.82;58.09
26657;BME280;14279;50.010;8.260;2023-03-03T05:25:39;100887.59;;;3.81;57.90
26657;BME280;14279;50.010;8.260;2023-03-03T05:28:05;100889.41;;;3.74;57.69
26657;BME280;14279;50.010;8.260;2023-03-03T05:30:30;100894.53;;;3.74;57.50
26657;BME280;14279;50.010;8.260;2023-03-03T05:32:56;100894.56;;;3.73;57.43
26657;BME280;14279;50.010;8.260;2023-03-03T05:35:23;100897.13;;;3.74;57.40
26657;BME280;14279;50.010;8.260;2023-03-03T05:37:48;100898.81;;;3.74;57.28
26657;BME280;14279;50.010;8.260;2023-03-03T05:40:13;100904.84;;;3.74;57.42
26657;BME280;14279;50.010;8.260;2023-03-03T05:42:39;100895.38;;;3.75;57.57
26657;BME280;14279;50.010;8.260;2023-03-03T05:45:05;100898.78;;;3.80;57.10
26657;BME280;14279;50.010;8.260;2023-03-03T05:47:30;100903.13;;;3.76;57.38
26657;BME280;14279;50.010;8.260;2023-03-03T05:49:55;100899.69;;;3.74;57.59
26657;BME280;14279;50.010;8.260;2023-03-03T05:52:21;100903.09;;;3.75;57.22
26657;BME280;14279;50.010;8.260;2023-03-03T05:54:48;100909.19;;;3.69;57.74
26657;BME280;14279;50.010;8.260;2023-03-03T05:57:13;100910.00;;;3.74;58.17
26657;BME280;14279;50.010;8.260;2023-03-03T05:59:38;100913.47;;;3.70;57.88
26657;BME280;14279;50.010;8.260;2023-03-03T06:02:04;100927.31;;;3.55;58.56
26657;BME280;14279;50.010;8.260;2023-03-03T06:04:29;100920.47;;;3.53;58.69
26657;BME280;14279;50.010;8.260;2023-03-03T06:06:54;100914.53;;;3.41;58.26
26657;BME280;14279;50.010;8.260;2023-03-03T06:09:19;100930.00;;;3.43;58.63
26657;BME280;14279;50.010;8.260;2023-03-03T06:11:45;100940.25;;;3.48;58.46
26657;BME280;14279;50.010;8.260;2023-03-03T06:14:10;100929.09;;;3.45;61.73
26657;BME280;14279;50.010;8.260;2023-03-03T06:16:35;100934.22;;;3.49;62.82
26657;BME280;14279;50.010;8.260;2023-03-03T06:19:01;100935.06;;;3.49;61.57
26657;BME280;14279;50.010;8.260;2023-03-03T06:21:26;100934.19;;;3.55;60.84
26657;BME280;14279;50.010;8.260;2023-03-03T06:23:51;100939.31;;;3.56;61.12
26657;BME280;14279;50.010;8.260;2023-03-03T06:26:16;100943.41;;;3.79;60.81
26657;BME280;14279;50.010;8.260;2023-03-03T06:28:42;100941.59;;;3.92;59.25
26657;BME280;14279;50.010;8.260;2023-03-03T06:31:07;100943.25;;;3.99;58.55
26657;BME280;14279;50.010;8.260;2023-03-03T06:33:32;100952.75;;;3.96;58.46
26657;BME280;14279;50.010;8.260;2023-03-03T06:35:57;100952.63;;;4.05;58.15
26657;BME280;14279;50.010;8.260;2023-03-03T06:38:23;100956.06;;;4.09;57.60
26657;BME280;14279;50.010;8.260;2023-03-03T06:40:48;100956.09;;;4.05;57.70
26657;BME280;14279;50.010;8.260;2023-03-03T06:43:14;100961.97;;;4.17;57.12
26657;BME280;14279;50.010;8.260;2023-03-03T06:45:39;100974.03;;;4.16;57.06
26657;BME280;14279;50.010;8.260;2023-03-03T06:48:05;100967.28;;;4.00;60.10
26657;BME280;14279;50.010;8.260;2023-03-03T06:50:30;100966.25;;;4.18;59.33
26657;BME280;14279;50.010;8.260;2023-03-03T06:53:06;100975.59;;;4.30;58.82
26657;BME280;14279;50.010;8.260;2023-03-03T06:55:34;100968.66;;;4.35;59.35
26657;BME280;14279;50.010;8.260;2023-03-03T06:57:59;100979.91;;;4.28;60.06
26657;BME280;14279;50.010;8.260;2023-03-03T07:00:26;100981.75;;;4.16;61.65
26657;BME280;14279;50.010;8.260;2023-03-03T07:03:00;100989.47;;;4.19;62.50
26657;BME280;14279;50.010;8.260;2023-03-03T07:05:27;101003.47;;;3.87;63.72
26657;BME280;14279;50.010;8.260;2023-03-03T07:07:54;100995.59;;;4.03;63.61
26657;BME280;14279;50.010;8.260;2023-03-03T07:10:25;101000.84;;;3.89;64.32
26657;BME280;14279;50.010;8.260;2023-03-03T07:12:51;101008.63;;;3.87;63.68
26657;BME280;14279;50.010;8.260;2023-03-03T07:15:21;101000.63;;;4.17;63.56
26657;BME280;14279;50.010;8.260;2023-03-03T07:17:48;101003.31;;;4.06;63.26
26657;BME280;14279;50.010;8.260;2023-03-03T07:20:28;101006.88;;;3.89;63.88
26657;BME280;14279;50.010;8.260;2023-03-03T07:22:56;101017.06;;;4.06;64.02
26657;BME280;14279;50.010;8.260;2023-03-03T07:25:32;101020.69;;;3.81;64.45
26657;BME280;14279;50.010;8.260;2023-03-03T07:28:31;101019.03;;;3.70;65.06
26657;BME280;14279;50.010;8.260;2023-03-03T07:30:56;101020.78;;;3.70;65.18
26657;BME280;14279;50.010;8.260;2023-03-03T07:33:27;101030.09;;;3.83;64.83
26657;BME280;14279;50.010;8.260;2023-03-03T07:35:55;101031.66;;;4.03;64.60
26657;BME280;14279;50.010;8.260;2023-03-03T07:38:31;101040.22;;;4.08;64.73
26657;BME280;14279;50.010;8.260;2023-03-03T07:41:00;101042.88;;;3.97;65.14
26657;BME280;14279;50.010;8.260;2023-03-03T07:48:37;101055.66;;;4.11;64.75
26657;BME280;14279;50.010;8.260;2023-03-03T07:51:13;101054.81;;;4.09;65.09
26657;BME280;14279;50.010;8.260;2023-03-03T07:53:40;101067.63;;;4.18;64.55
26657;BME280;14279;50.010;8.260;2023-03-03T07:56:27;101064.97;;;4.25;64.46
26657;BME280;14279;50.010;8.260;2023-03-03T07:58:54;101066.63;;;4.35;64.33
26657;BME280;14279;50.010;8.260;2023-03-03T08:01:28;101063.03;;;4.48;64.11
26657;BME280;14279;50.010;8.260;2023-03-03T08:03:56;101065.69;;;4.41;64.41
26657;BME280;14279;50.010;8.260;2023-03-03T08:06:36;101064.66;;;4.60;63.93
26657;BME280;14279;50.010;8.260;2023-03-03T08:14:30;101075.78;;;4.67;63.88
26657;BME280;14279;50.010;8.260;2023-03-03T08:16:58;101081.16;;;4.45;64.70
26657;BME280;14279;50.010;8.260;2023-03-03T08:19:23;101089.88;;;4.29;65.33
26657;BME280;14279;50.010;8.260;2023-03-03T08:21:49;101097.44;;;4.47;65.05
26657;BME280;14279;50.010;8.260;2023-03-03T08:24:14;101087.28;;;4.30;65.21
26657;BME280;14279;50.010;8.260;2023-03-03T08:26:40;101086.44;;;4.28;66.24
26657;BME280;14279;50.010;8.260;2023-03-03T08:32:27;101084.34;;;4.71;64.16
26657;BME280;14279;50.010;8.260;2023-03-03T08:34:52;101088.75;;;4.58;64.58
26657;BME280;14279;50.010;8.260;2023-03-03T08:37:17;101083.44;;;4.75;64.53
26657;BME280;14279;50.010;8.260;2023-03-03T08:39:42;101092.41;;;4.33;65.25
26657;BME280;14279;50.010;8.260;2023-03-03T08:42:08;101082.97;;;4.34;65.32
26657;BME280;14279;50.010;8.260;2023-03-03T08:44:33;101082.00;;;4.46;64.65
26657;BME280;14279;50.010;8.260;2023-03-03T08:46:59;101080.84;;;4.75;64.44
26657;BME280;14279;50.010;8.260;2023-03-03T08:49:24;101080.84;;;4.75;64.02
26657;BME280;14279;50.010;8.260;2023-03-03T08:51:49;101088.34;;;4.98;63.60
26657;BME280;14279;50.010;8.260;2023-03-03T08:54:16;101084.16;;;4.86;63.51
26657;BME280;14279;50.010;8.260;2023-03-03T08:56:42;101084.09;;;4.92;63.70
26657;BME280;14279;50.010;8.260;2023-03-03T08:59:07;101090.41;;;4.65;63.79
26657;BME280;14279;50.010;8.260;2023-03-03T09:01:33;101085.94;;;4.82;63.38
26657;BME280;14279;50.010;8.260;2023-03-03T09:03:59;101090.28;;;4.77;62.97
26657;BME280;14279;50.010;8.260;2023-03-03T09:06:24;101096.19;;;4.87;63.06
26657;BME280;14279;50.010;8.260;2023-03-03T09:08:50;101096.31;;;4.76;63.40
26657;BME280;14279;50.010;8.260;2023-03-03T09:11:30;101093.47;;;5.03;62.64
26657;BME280;14279;50.010;8.260;2023-03-03T09:14:28;101093.72;;;4.78;63.40
26657;BME280;14279;50.010;8.260;2023-03-03T09:16:55;101098.59;;;5.04;62.72
26657;BME280;14279;50.010;8.260;2023-03-03T09:21:45;101101.09;;;5.12;61.96
26657;BME280;14279;50.010;8.260;2023-03-03T09:24:34;101105.16;;;5.32;61.39
26657;BME280;14279;50.010;8.260;2023-03-03T10:00:51;101117.31;;;5.89;59.03
26657;BME280;14279;50.010;8.260;2023-03-03T10:03:53;101118.25;;;6.41;58.43
26657;BME280;14279;50.010;8.260;2023-03-03T10:06:43;101120.06;;;6.38;58.07
26657;BME280;14279;50.010;8.260;2023-03-03T10:12:40;101122.28;;;6.05;58.90
26657;BME280;14279;50.010;8.260;2023-03-03T10:18:12;101128.41;;;6.54;57.57
26657;BME280;14279;50.010;8.260;2023-03-03T10:20:44;101133.41;;;6.63;57.01
26657;BME280;14279;50.010;8.260;2023-03-03T11:31:55;101124.88;;;7.90;53.08
26657;BME280;14279;50.010;8.260;2023-03-03T11:35:07;101127.56;;;7.44;54.04
26657;BME280;14279;50.010;8.260;2023-03-03T11:43:44;101114.63;;;7.83;53.83
26657;BME280;14279;50.010;8.260;2023-03-03T11:46:17;101100.66;;;7.91;52.74
26657;BME280;14279;50.010;8.260;2023-03-03T11:49:05;101103.66;;;8.10;52.37
26657;BME280;14279;50.010;8.260;2023-03-03T11:51:43;101102.41;;;7.90;52.75
26657;BME280;14279;50.010;8.260;2023-03-03T11:54:33;101089.69;;;8.16;52.39
26657;BME280;14279;50.010;8.260;2023-03-03T11:57:22;101085.59;;;8.07;52.14
26657;BME280;14279;50.010;8.260;2023-03-03T11:59:58;101087.16;;;8.12;52.57
26657;BME280;14279;50.010;8.260;2023-03-03T12:05:05;101077.81;;;8.41;51.48
26657;BME280;14279;50.010;8.260;2023-03-03T12:11:01;101075.16;;;8.43;50.95
26657;BME280;14279;50.010;8.260;2023-03-03T12:13:45;101071.13;;;8.33;51.39
26657;BME280;14279;50.010;8.260;2023-03-03T12:19:15;101051.53;;;8.55;50.62
26657;BME280;14279;50.010;8.260;2023-03-03T12:21:59;101056.38;;;8.68;50.23
26657;BME280;14279;50.010;8.260;2023-03-03T12:29:53;101052.56;;;8.81;49.46
26657;BME280;14279;50.010;8.260;2023-03-03T12:36:02;101047.34;;;9.13;48.61
26657;BME280;14279;50.010;8.260;2023-03-03T12:38:39;101035.63;;;8.99;49.19
26657;BME280;14279;50.010;8.260;2023-03-03T12:41:27;101027.44;;;8.83;49.33
26657;BME280;14279;50.010;8.260;2023-03-03T12:49:06;101017.25;;;9.06;49.30
26657;BME280;14279;50.010;8.260;2023-03-03T12:57:43;101011.66;;;10.02;48.43
26657;BME280;14279;50.010;8.260;2023-03-03T13:00:35;101011.84;;;9.97;47.64
26657;BME280;14279;50.010;8.260;2023-03-03T13:06:35;101005.00;;;9.68;47.30
26657;BME280;14279;50.010;8.260;2023-03-03T13:09:19;101007.63;;;9.93;46.94
26657;BME280;14279;50.010;8.260;2023-03-03T13:11:59;101008.53;;;9.65;47.70
26657;BME280;14279;50.010;8.260;2023-03-03T13:17:17;101009.66;;;9.85;47.00
26657;BME280;14279;50.010;8.260;2023-03-03T13:19:51;101006.03;;;9.89;46.93
26657;BME280;14279;50.010;8.260;2023-03-03T13:22:33;101005.59;;;10.28;45.89
26657;BME280;14279;50.010;8.260;2023-03-03T13:25:07;100992.78;;;9.97;46.45
26657;BME280;14279;50.010;8.260;2023-03-03T13:27:44;101002.47;;;10.18;46.14
26657;BME280;14279;50.010;8.260;2023-03-03T13:30:26;100991.72;;;10.28;46.09
26657;BME280;14279;50.010;8.260;2023-03-03T13:35:32;100983.13;;;10.26;46.00
26657;BME280;14279;50.010;8.260;2023-03-03T13:38:03;100983.81;;;10.31;45.94
26657;BME280;14279;50.010;8.260;2023-03-03T13:40:38;100988.19;;;10.56;45.99
26657;BME280;14279;50.010;8.260;2023-03-03T13:43:18;100985.28;;;10.13;46.75
26657;BME280;14279;50.010;8.260;2023-03-03T13:46:17;100985.53;;;10.06;46.73
26657;BME280;14279;50.010;8.260;2023-03-03T13:51:35;100984.47;;;10.63;45.92
26657;BME280;14279;50.010;8.260;2023-03-03T13:54:20;100979.09;;;10.17;46.23
26657;BME280;14279;50.010;8.260;2023-03-03T13:57:34;100976.63;;;10.37;46.37
26657;BME280;14279;50.010;8.260;2023-03-03T13:59:55;100973.56;;;10.75;45.35
26657;BME280;14279;50.010;8.260;2023-03-03T14:16:56;100962.16;;;10.30;46.37
26657;BME280;14279;50.010;8.260;2023-03-03T14:19:43;100955.31;;;10.53;45.65
26657;BME280;14279;50.010;8.260;2023-03-03T14:22:19;100952.34;;;10.62;44.73
26657;BME280;14279;50.010;8.260;2023-03-03T14:25:02;100952.19;;;10.91;44.18
26657;BME280;14279;50.010;8.260;2023-03-03T14:35:47;100951.03;;;10.74;45.07
26657;BME280;14279;50.010;8.260;2023-03-03T14:38:22;100949.53;;;10.68;45.12
26657;BME280;14279;50.010;8.260;2023-03-03T14:40:48;100961.25;;;10.31;45.15
26657;BME280;14279;50.010;8.260;2023-03-03T14:43:37;100948.72;;;10.43;44.86
26657;BME280;14279;50.010;8.260;2023-03-03T14:46:30;100956.91;;;10.32;44.67
26657;BME280;14279;50.010;8.260;2023-03-03T14:48:58;100950.00;;;10.31;44.95
26657;BME280;14279;50.010;8.260;2023-03-03T14:51:27;100954.34;;;10.30;44.45
26657;BME280;14279;50.010;8.260;2023-03-03T14:53:55;100954.84;;;10.16;44.49
26657;BME280;14279;50.010;8.260;2023-03-03T14:56:28;100952.53;;;10.07;44.90
26657;BME280;14279;50.010;8.260;2023-03-03T14:59:15;100952.13;;;9.94;44.44
26657;BME280;14279;50.010;8.260;2023-03-03T15:01:41;100944.19;;;9.99;43.95
26657;BME280;14279;50.010;8.260;2023-03-03T15:04:25;100953.59;;;10.27;43.16
26657;BME280;14279;50.010;8.260;2023-03-03T15:06:53;100951.75;;;10.30;43.03
26657;BME280;14279;50.010;8.260;2023-03-03T15:12:25;100947.91;;;10.42;42.08
26657;BME280;14279;50.010;8.260;2023-03-03T15:15:06;100946.66;;;10.27;40.90
26657;BME280;14279;50.010;8.260;2023-03-03T15:17:40;100939.97;;;10.45;40.34
26657;BME280;14279;50.010;8.260;2023-03-03T15:23:30;100940.53;;;10.03;40.18
26657;BME280;14279;50.010;8.260;2023-03-03T15:26:08;100945.38;;;10.14;40.17
26657;BME280;14279;50.010;8.260;2023-03-03T15:31:38;100939.75;;;10.26;39.75
26657;BME280;14279;50.010;8.260;2023-03-03T15:34:25;100937.63;;;10.12;39.68
26657;BME280;14279;50.010;8.260;2023-03-03T15:39:59;100935.03;;;10.12;38.95
26657;BME280;14279;50.010;8.260;2023-03-03T15:45:26;100941.69;;;9.96;38.92
26657;BME280;14279;50.010;8.260;2023-03-03T15:53:40;100945.44;;;9.87;37.56
26657;BME280;14279;50.010;8.260;2023-03-03T15:56:20;100947.72;;;9.71;38.05
26657;BME280;14279;50.010;8.260;2023-03-03T16:01:33;100941.84;;;9.64;38.81
26657;BME280;14279;50.010;8.260;2023-03-03T16:04:09;100949.63;;;9.64;38.74
26657;BME280;14279;50.010;8.260;2023-03-03T16:06:46;100945.84;;;9.47;38.37
26657;BME280;14279;50.010;8.260;2023-03-03T16:09:37;100947.53;;;9.48;38.30
26657;BME280;14279;50.010;8.260;2023-03-03T16:12:33;100951.25;;;9.68;38.47
26657;BME280;14279;50.010;8.260;2023-03-03T16:15:19;100950.06;;;9.77;38.89
26657;BME280;14279;50.010;8.260;2023-03-03T16:20:23;100961.88;;;9.60;39.23
26657;BME280;14279;50.010;8.260;2023-03-03T16:33:36;100963.50;;;9.65;40.51
26657;BME280;14279;50.010;8.260;2023-03-03T16:39:02;100966.81;;;9.41;46.50
26657;BME280;14279;50.010;8.260;2023-03-03T16:42:02;100972.81;;;9.43;47.15
26657;BME280;14279;50.010;8.260;2023-03-03T16:44:51;100974.06;;;9.31;47.88
26657;BME280;14279;50.010;8.260;2023-03-03T16:50:24;100973.16;;;9.04;49.04
26657;BME280;14279;50.010;8.260;2023-03-03T16:53:09;100974.53;;;9.16;48.92
26657;BME280;14279;50.010;8.260;2023-03-03T16:58:44;100976.03;;;8.95;49.09
26657;BME280;14279;50.010;8.260;2023-03-03T17:06:29;100990.41;;;8.77;49.86
26657;BME280;14279;50.010;8.260;2023-03-03T17:17:00;101001.13;;;8.64;50.00
26657;BME280;14279;50.010;8.260;2023-03-03T17:19:46;101008.00;;;8.65;49.79
26657;BME280;14279;50.010;8.260;2023-03-03T17:22:19;101004.06;;;8.52;50.34
26657;BME280;14279;50.010;8.260;2023-03-03T17:25:21;101011.03;;;8.50;50.47
26657;BME280;14279;50.010;8.260;2023-03-03T17:31:07;101014.19;;;8.26;51.13
26657;BME280;14279;50.010;8.260;2023-03-03T17:33:41;101023.47;;;8.37;50.68
26657;BME280;14279;50.010;8.260;2023-03-03T17:36:41;101023.94;;;8.18;50.93
26657;BME280;14279;50.010;8.260;2023-03-03T17:39:12;101036.91;;;8.18;51.26
26657;BME280;14279;50.010;8.260;2023-03-03T17:41:54;101040.41;;;8.17;51.20
26657;BME280;14279;50.010;8.260;2023-03-03T17:44:32;101042.59;;;8.33;50.92
26657;BME280;14279;50.010;8.260;2023-03-03T17:47:06;101052.06;;;8.34;50.91
26657;BME280;14279;50.010;8.260;2023-03-03T17:54:59;101068.53;;;8.31;50.72
26657;BME280;14279;50.010;8.260;2023-03-03T18:00:43;101071.25;;;8.28;50.68